LEVX/VGO METAR and TAF weather

Enter ICAO airport designator
Station Type Date Time Source
LEVX METAR 2020/08/15 16:00 UTC NOAA

LEVX 151600Z 27007KT 200V320 9999 FEW026 SCT040 20/13 Q1017 TEMPO 3000 SHRA SCT030TCU


Station Type Date Time Source
LEVX Decoded METAR 2020/08/15 16:00 UTC NOAA

Vigo / Peinador, Spain (LEVX) 42-13N 008-38W 255M
Aug 15, 2020 - 12:00 PM EDT / 2020.08.15 1600 UTC
Wind: from the W (270 degrees) at 8 MPH (7 KT) (direction variable):0
Visibility: greater than 7 mile(s):0
Sky conditions: partly cloudy
Weather: Towering cumulus clouds observed
Temperature: 68 F (20 C)
Dew Point: 55 F (13 C)
Relative Humidity: 64%
Pressure (altimeter): 30.03 in. Hg (1017 hPa)
ob: LEVX 151600Z 27007KT 200V320 9999 FEW026 SCT040 20/13 Q1017 TEMPO 3000 SHRA SCT030TCU
cycle: 16

Station Type Date Time Source
LEVX TAF 2020/08/15 12:27 UTC NOAA

TAF TAF LEVX 151100Z 1512/1612 27010KT 9999 SCT020 TX21/1514Z TN14/1605Z PROB30
TEMPO 1512/1612 RA SHRA BKN010 SCT020TCU
BECMG 1518/1521 19005KT
TEMPO 1600/1609 3000 -RADZ BR BKN010 PROB40
TEMPO 1603/1608 0800 BCFG BKN003 PROB30
TEMPO 1604/1608 0350 FG VV001

Example: see airport list